KFBL

Faribault Municipal-Liz Wall Strohfus Field Airport

Faribault, Minnesota, USA
METAR KFBL 191115Z AUTO 10004KT 7SM SCT007 17/17 A2998 RMK AO2 LTG DSNT SW
Observed Flight Rules
Sep-19 @ 11:15 UTC (25 minutes ago) Visual Flight Rules
Wind Visibility Clouds
100° at 4 knots 7 miles
  • Scattered at 700' AGL
Temperatures Readings
Current 17°C / 63°F
Dewpoint 17°C / 63°F
Humidity 100%
Altimeter 29.98" Hg
Pressure 1015 hPa
Elevation 322
METAR KFBL 191115Z AUTO 10004KT 7SM SCT007 17/17 A2998 RMK AO2 LTG DSNT SW
Observed Flight Rules
Sep-19 @ 11:15 UTC
(25 minutes ago)
VFR
Wind Visibility
100° at 4 knots 7 miles
Clouds
  • Scattered at 700' AGL
Temperature Dewpoint
17°C / 63°F 17°C / 63°F
Humidity Altimeter Pressure
100% 29.98" Hg 1015 hPa